Time;durP1;ratioP1;P1;durP2;ratioP2;P2;SDS_P1;SDS_P2;PMS_P1;PMS_P2;Temp;Humidity;BMP_temperature;BMP_pressure;BME280_temperature;BME280_humidity;BME280_pressure;Samples;Min_cycle;Max_cycle;Signal;HPM_P1;HPM_P2
2022/06/04 00:00:42;;;;;;;15.40;3.47;;;;;;;;;;5051301;28;20032;-73
2022/06/04 00:03:08;;;;;;;11.80;3.00;;;;;;;;;;5051480;28;20052;-74
2022/06/04 00:05:37;;;;;;;19.27;3.58;;;;;;;;;;5050708;28;20511;-73
2022/06/04 00:08:04;;;;;;;12.30;2.92;;;;;;;;;;5051294;28;20113;-73
2022/06/04 00:16:04;;;;;;;14.93;3.35;;;;;;;;;;5051597;28;20552;-74
2022/06/04 00:18:30;;;;;;;15.45;3.10;;;;;;;;;;5050939;28;20032;-74
2022/06/04 00:20:56;;;;;;;14.55;3.40;;;;;;;;;;5050814;28;20389;-75
2022/06/04 00:23:21;;;;;;;12.25;3.00;;;;;;;;;;5050692;28;20045;-72
2022/06/04 00:25:52;;;;;;;13.50;3.95;;;;;;;;;;5050759;28;20056;-73
2022/06/04 00:28:20;;;;;;;20.10;4.20;;;;;;;;;;5050318;28;20033;-74
2022/06/04 00:30:46;;;;;;;19.48;4.50;;;;;;;;;;5051163;28;20090;-74
2022/06/04 00:33:12;;;;;;;19.98;4.60;;;;;;;;;;5050933;28;20026;-73
2022/06/04 00:35:38;;;;;;;13.88;4.30;;;;;;;;;;5050550;28;20033;-73
2022/06/04 00:38:06;;;;;;;22.10;3.92;;;;;;;;;;5050571;28;20518;-73
2022/06/04 00:40:56;;;;;;;21.00;4.65;;;;;;;;;;5050563;28;20578;-72
2022/06/04 00:43:22;;;;;;;21.25;4.63;;;;;;;;;;5050719;28;20033;-74
2022/06/04 00:46:30;;;;;;;21.00;4.57;;;;;;;;;;5050828;28;20021;-73
2022/06/04 00:48:55;;;;;;;13.40;4.22;;;;;;;;;;5044865;28;20037;-71
2022/06/04 00:51:24;;;;;;;16.92;4.47;;;;;;;;;;5049069;28;20120;-72
2022/06/04 00:53:50;;;;;;;20.35;4.35;;;;;;;;;;5050885;28;20404;-74
2022/06/04 00:56:34;;;;;;;21.00;4.45;;;;;;;;;;5050543;28;20032;-73
2022/06/04 00:59:14;;;;;;;19.55;4.55;;;;;;;;;;5050809;28;20033;-73
2022/06/04 01:01:57;;;;;;;19.70;4.53;;;;;;;;;;5050293;28;20037;-73
2022/06/04 01:04:47;;;;;;;20.35;4.78;;;;;;;;;;5050426;28;20032;-74
2022/06/04 01:07:21;;;;;;;19.10;4.22;;;;;;;;;;5050185;28;20402;-73
2022/06/04 01:10:41;;;;;;;16.33;4.38;;;;;;;;;;5050076;28;20477;-72
2022/06/04 01:13:31;;;;;;;20.75;4.53;;;;;;;;;;5007520;28;20033;-74
2022/06/04 01:16:02;;;;;;;19.05;4.30;;;;;;;;;;5047960;28;20389;-73
2022/06/04 01:18:52;;;;;;;24.50;4.85;;;;;;;;;;5050160;28;20043;-73
2022/06/04 01:21:43;;;;;;;19.48;4.55;;;;;;;;;;5049802;28;20025;-72
2022/06/04 01:24:25;;;;;;;17.52;4.63;;;;;;;;;;5050251;28;20035;-73
2022/06/04 01:27:15;;;;;;;19.88;4.50;;;;;;;;;;5049895;28;20115;-71
2022/06/04 01:29:57;;;;;;;21.85;4.80;;;;;;;;;;5049826;28;20024;-73
2022/06/04 01:32:28;;;;;;;18.67;4.38;;;;;;;;;;5049723;28;20086;-72
2022/06/04 01:35:23;;;;;;;20.80;4.38;;;;;;;;;;5049709;28;20112;-74
2022/06/04 01:38:05;;;;;;;19.35;4.43;;;;;;;;;;5045584;28;20045;-73
2022/06/04 01:43:21;;;;;;;19.75;4.70;;;;;;;;;;5050298;28;20032;-75
2022/06/04 01:45:49;;;;;;;17.40;4.47;;;;;;;;;;5050353;28;20025;-73
2022/06/04 01:48:17;;;;;;;12.57;4.20;;;;;;;;;;5052431;28;20104;-67
2022/06/04 01:50:51;;;;;;;17.88;4.38;;;;;;;;;;5052247;28;20035;-72
2022/06/04 01:53:19;;;;;;;21.40;5.05;;;;;;;;;;5049981;28;20080;-73
2022/06/04 01:55:54;;;;;;;21.05;4.72;;;;;;;;;;5050378;28;20032;-72
2022/06/04 01:58:26;;;;;;;14.18;4.57;;;;;;;;;;5049674;28;20029;-74
2022/06/04 02:01:05;;;;;;;23.38;4.50;;;;;;;;;;5049696;28;20031;-73
2022/06/04 02:03:38;;;;;;;21.92;5.10;;;;;;;;;;5049928;28;20025;-73
2022/06/04 02:06:19;;;;;;;18.40;4.85;;;;;;;;;;5049380;28;20052;-73
2022/06/04 02:08:49;;;;;;;20.88;4.65;;;;;;;;;;5049714;28;20029;-73
2022/06/04 02:11:21;;;;;;;20.38;4.82;;;;;;;;;;5052327;28;20098;-74
2022/06/04 02:13:49;;;;;;;20.02;4.68;;;;;;;;;;5056446;28;20137;-72
2022/06/04 02:16:37;;;;;;;19.48;4.55;;;;;;;;;;5057971;28;20504;-74
2022/06/04 02:19:03;;;;;;;17.90;4.72;;;;;;;;;;5056786;28;20508;-72
2022/06/04 02:21:30;;;;;;;16.88;4.80;;;;;;;;;;5051898;28;20051;-74
2022/06/04 02:23:56;;;;;;;17.10;4.68;;;;;;;;;;5051660;28;20063;-72
2022/06/04 02:26:22;;;;;;;19.33;4.80;;;;;;;;;;5054370;28;20047;-73
2022/06/04 02:28:48;;;;;;;14.55;4.57;;;;;;;;;;5054983;28;20075;-72
2022/06/04 02:31:36;;;;;;;15.60;5.05;;;;;;;;;;5055319;28;20057;-72
2022/06/04 02:34:01;;;;;;;22.23;4.70;;;;;;;;;;5055860;28;20025;-73
2022/06/04 02:37:12;;;;;;;15.00;4.63;;;;;;;;;;5054139;28;20020;-70
2022/06/04 02:40:01;;;;;;;21.25;5.05;;;;;;;;;;5040976;28;20044;-71
2022/06/04 02:42:37;;;;;;;17.50;4.90;;;;;;;;;;5049612;28;20093;-71
2022/06/04 02:45:42;;;;;;;16.88;4.60;;;;;;;;;;5047807;28;20071;-71
2022/06/04 02:48:14;;;;;;;18.45;5.32;;;;;;;;;;5042431;28;20060;-73
2022/06/04 02:51:06;;;;;;;20.05;5.07;;;;;;;;;;5050680;28;20114;-72
2022/06/04 02:53:33;;;;;;;17.55;4.70;;;;;;;;;;5052737;28;20033;-74
2022/06/04 02:56:06;;;;;;;22.10;5.07;;;;;;;;;;5052858;28;20051;-72
2022/06/04 02:58:33;;;;;;;14.18;4.38;;;;;;;;;;5052245;28;20036;-73
2022/06/04 03:00:59;;;;;;;19.80;4.88;;;;;;;;;;5052575;28;20035;-73
2022/06/04 03:03:25;;;;;;;19.55;5.15;;;;;;;;;;5052549;28;20389;-69
2022/06/04 03:05:59;;;;;;;23.70;4.90;;;;;;;;;;5052346;28;20032;-68
2022/06/04 03:08:30;;;;;;;24.77;5.28;;;;;;;;;;5052249;28;20025;-73
2022/06/04 03:10:56;;;;;;;24.95;5.22;;;;;;;;;;5052639;28;20036;-72
2022/06/04 03:13:22;;;;;;;22.73;5.25;;;;;;;;;;5052547;28;20021;-69
2022/06/04 03:15:47;;;;;;;23.60;5.78;;;;;;;;;;5052268;28;20021;-71
2022/06/04 03:18:14;;;;;;;22.52;5.28;;;;;;;;;;5051921;28;20123;-71
2022/06/04 03:20:40;;;;;;;23.80;5.55;;;;;;;;;;5052018;28;20028;-72
2022/06/04 03:23:09;;;;;;;21.23;5.55;;;;;;;;;;5052079;28;20045;-70
2022/06/04 03:25:36;;;;;;;20.55;5.18;;;;;;;;;;5052298;28;20036;-68
2022/06/04 03:28:02;;;;;;;24.95;5.75;;;;;;;;;;5052216;28;20037;-69
2022/06/04 03:30:28;;;;;;;26.33;6.10;;;;;;;;;;5051922;28;20078;-72
2022/06/04 03:32:54;;;;;;;26.20;5.68;;;;;;;;;;5052319;28;20025;-73
2022/06/04 03:35:20;;;;;;;28.15;5.53;;;;;;;;;;5051788;28;20116;-72
2022/06/04 03:37:45;;;;;;;27.52;6.20;;;;;;;;;;5051637;28;20104;-69
2022/06/04 03:40:12;;;;;;;25.27;6.28;;;;;;;;;;5051897;28;20029;-69
2022/06/04 03:42:37;;;;;;;28.83;6.07;;;;;;;;;;5052221;28;20104;-69
2022/06/04 03:45:05;;;;;;;22.05;6.00;;;;;;;;;;5052258;28;20112;-72
2022/06/04 03:47:36;;;;;;;27.88;6.05;;;;;;;;;;5051943;28;20283;-73
2022/06/04 03:50:03;;;;;;;27.90;6.38;;;;;;;;;;5051557;28;20037;-72
2022/06/04 03:52:29;;;;;;;26.42;6.68;;;;;;;;;;5051603;28;20529;-72
2022/06/04 03:54:54;;;;;;;27.85;7.18;;;;;;;;;;5051485;28;20120;-72
2022/06/04 03:57:38;;;;;;;26.95;7.00;;;;;;;;;;5051627;28;20025;-67
2022/06/04 04:00:09;;;;;;;31.27;7.18;;;;;;;;;;5051458;28;20029;-68
2022/06/04 04:02:36;;;;;;;32.70;7.30;;;;;;;;;;5048981;28;20101;-68
2022/06/04 04:05:02;;;;;;;31.88;7.80;;;;;;;;;;5051591;28;20025;-70
2022/06/04 04:07:27;;;;;;;27.00;7.13;;;;;;;;;;5050860;28;20234;-72
2022/06/04 04:09:53;;;;;;;26.90;6.80;;;;;;;;;;5051136;28;20025;-72
2022/06/04 04:12:18;;;;;;;27.05;6.25;;;;;;;;;;5051096;28;20029;-71
2022/06/04 04:14:43;;;;;;;31.15;7.15;;;;;;;;;;5051293;28;20100;-71
2022/06/04 04:17:09;;;;;;;33.53;7.25;;;;;;;;;;5051153;28;20488;-70
2022/06/04 04:19:35;;;;;;;32.13;7.18;;;;;;;;;;5051275;28;20017;-74
2022/06/04 04:22:01;;;;;;;22.88;6.65;;;;;;;;;;5050910;28;20049;-67
2022/06/04 04:24:26;;;;;;;30.77;6.72;;;;;;;;;;5051124;28;20033;-68
2022/06/04 04:26:52;;;;;;;22.58;6.50;;;;;;;;;;5050873;28;20021;-69
2022/06/04 04:29:18;;;;;;;31.08;7.68;;;;;;;;;;5051035;28;20115;-67
2022/06/04 04:31:43;;;;;;;27.45;7.05;;;;;;;;;;5050775;28;20370;-68
2022/06/04 04:34:08;;;;;;;28.08;7.07;;;;;;;;;;5050841;28;20039;-72
2022/06/04 04:36:34;;;;;;;30.63;7.25;;;;;;;;;;5050884;28;20483;-68
2022/06/04 04:38:59;;;;;;;30.67;7.25;;;;;;;;;;5050619;28;20108;-72
2022/06/04 04:41:26;;;;;;;30.10;7.35;;;;;;;;;;5050570;28;20032;-73
2022/06/04 04:43:52;;;;;;;29.75;7.70;;;;;;;;;;5050621;28;20079;-73
2022/06/04 04:46:19;;;;;;;33.72;7.82;;;;;;;;;;5050429;28;20029;-73
2022/06/04 04:48:46;;;;;;;27.65;7.60;;;;;;;;;;5050231;28;20029;-72
2022/06/04 04:51:14;;;;;;;28.92;6.82;;;;;;;;;;5050157;28;20043;-73
2022/06/04 04:53:41;;;;;;;30.05;7.45;;;;;;;;;;5050594;28;20021;-72
2022/06/04 04:56:07;;;;;;;26.02;7.80;;;;;;;;;;5050702;28;20032;-72
2022/06/04 04:58:32;;;;;;;35.85;7.40;;;;;;;;;;5050271;28;20040;-74
2022/06/04 05:00:58;;;;;;;37.92;8.00;;;;;;;;;;5050521;28;20021;-73
2022/06/04 05:03:23;;;;;;;28.42;7.22;;;;;;;;;;5050279;28;20017;-73
2022/06/04 05:06:03;;;;;;;30.75;7.70;;;;;;;;;;5049946;28;20021;-73
2022/06/04 05:08:29;;;;;;;32.47;7.50;;;;;;;;;;5050202;28;20528;-71
2022/06/04 05:10:55;;;;;;;31.42;7.82;;;;;;;;;;5048775;28;20654;-73
2022/06/04 05:13:20;;;;;;;36.88;7.82;;;;;;;;;;5049944;28;20081;-73
2022/06/04 05:15:46;;;;;;;30.58;7.68;;;;;;;;;;5050202;28;20053;-72
2022/06/04 05:18:12;;;;;;;36.22;7.45;;;;;;;;;;5049879;28;20021;-73
2022/06/04 05:20:41;;;;;;;24.48;6.40;;;;;;;;;;5049854;28;20020;-72
2022/06/04 05:23:06;;;;;;;28.48;6.72;;;;;;;;;;5049797;28;20401;-72
2022/06/04 05:25:32;;;;;;;21.42;6.40;;;;;;;;;;5050300;28;20036;-71
2022/06/04 05:27:57;;;;;;;25.20;6.10;;;;;;;;;;5050070;28;20277;-73
2022/06/04 05:30:24;;;;;;;24.75;6.10;;;;;;;;;;5050168;28;20033;-73
2022/06/04 05:32:49;;;;;;;20.73;6.05;;;;;;;;;;5050113;28;20025;-71
2022/06/04 05:35:15;;;;;;;24.85;5.88;;;;;;;;;;5049846;28;20066;-73
2022/06/04 05:37:41;;;;;;;25.67;6.50;;;;;;;;;;5049472;28;20035;-73
2022/06/04 05:40:07;;;;;;;27.80;6.43;;;;;;;;;;5049836;28;20024;-73
2022/06/04 05:42:33;;;;;;;27.55;6.65;;;;;;;;;;5049963;28;20031;-72
2022/06/04 05:44:59;;;;;;;32.63;6.25;;;;;;;;;;5049918;28;20020;-73
2022/06/04 05:47:25;;;;;;;29.08;7.22;;;;;;;;;;5050175;28;20095;-72
2022/06/04 05:49:51;;;;;;;26.42;6.55;;;;;;;;;;5049447;28;20445;-70
2022/06/04 05:52:16;;;;;;;30.60;7.05;;;;;;;;;;5049487;28;20029;-72
2022/06/04 05:54:42;;;;;;;28.13;7.15;;;;;;;;;;5049764;28;20056;-72
2022/06/04 05:57:08;;;;;;;33.30;7.80;;;;;;;;;;5049504;28;20481;-72
2022/06/04 05:59:33;;;;;;;27.80;8.02;;;;;;;;;;5049521;28;20126;-74
2022/06/04 06:01:59;;;;;;;31.63;8.07;;;;;;;;;;5049532;28;20113;-74
2022/06/04 06:04:26;;;;;;;41.38;8.02;;;;;;;;;;5049667;28;20624;-73
2022/06/04 06:06:52;;;;;;;29.88;7.72;;;;;;;;;;5049346;28;20032;-72
2022/06/04 06:09:21;;;;;;;31.33;8.05;;;;;;;;;;5049767;28;20052;-74
2022/06/04 06:11:48;;;;;;;40.17;8.25;;;;;;;;;;5048171;28;20094;-71
2022/06/04 06:14:14;;;;;;;31.25;7.90;;;;;;;;;;5049297;28;20035;-68
2022/06/04 06:16:45;;;;;;;28.77;8.27;;;;;;;;;;5049853;28;20099;-73
2022/06/04 06:19:12;;;;;;;37.85;8.25;;;;;;;;;;5049167;28;20036;-73
2022/06/04 06:21:38;;;;;;;34.28;7.32;;;;;;;;;;5049360;28;20139;-71
2022/06/04 06:24:05;;;;;;;28.40;7.65;;;;;;;;;;5049425;28;20544;-72
2022/06/04 06:26:34;;;;;;;34.80;8.02;;;;;;;;;;5052703;28;20068;-74
2022/06/04 06:29:01;;;;;;;26.58;7.38;;;;;;;;;;5053203;28;20035;-74
2022/06/04 06:31:28;;;;;;;32.97;8.02;;;;;;;;;;5053409;28;20025;-71
2022/06/04 06:33:54;;;;;;;34.88;8.80;;;;;;;;;;5052933;28;20063;-73
2022/06/04 06:36:21;;;;;;;37.45;8.60;;;;;;;;;;5053238;28;20465;-72
2022/06/04 06:38:47;;;;;;;33.05;8.18;;;;;;;;;;5052990;28;20535;-74
2022/06/04 06:41:15;;;;;;;32.80;7.68;;;;;;;;;;5053076;28;20033;-75
2022/06/04 06:43:47;;;;;;;41.88;8.05;;;;;;;;;;5053233;28;20032;-73
2022/06/04 06:46:15;;;;;;;29.33;8.55;;;;;;;;;;5052942;28;20029;-73
2022/06/04 06:48:42;;;;;;;27.95;7.82;;;;;;;;;;5052514;28;20025;-72
2022/06/04 06:51:15;;;;;;;34.97;8.13;;;;;;;;;;5052500;28;20025;-69
2022/06/04 06:53:40;;;;;;;31.23;7.13;;;;;;;;;;5052996;28;20033;-69
2022/06/04 06:56:12;;;;;;;26.20;7.65;;;;;;;;;;5052738;28;20021;-68
2022/06/04 06:58:37;;;;;;;31.20;7.50;;;;;;;;;;5052717;28;20492;-70
2022/06/04 07:01:03;;;;;;;36.78;8.07;;;;;;;;;;5052661;28;20032;-72
2022/06/04 07:03:29;;;;;;;34.20;8.35;;;;;;;;;;5052806;28;20476;-68
2022/06/04 07:05:55;;;;;;;31.05;8.15;;;;;;;;;;5052359;28;20032;-71
2022/06/04 07:08:22;;;;;;;32.33;8.13;;;;;;;;;;5052386;28;20078;-69
2022/06/04 07:10:47;;;;;;;31.58;8.25;;;;;;;;;;5052349;28;20476;-68
2022/06/04 07:13:13;;;;;;;27.70;7.88;;;;;;;;;;5052391;28;20032;-68
2022/06/04 07:15:39;;;;;;;30.95;7.90;;;;;;;;;;5052521;28;20468;-70
2022/06/04 07:18:05;;;;;;;31.05;7.40;;;;;;;;;;5052501;28;20025;-71
2022/06/04 07:20:31;;;;;;;27.80;7.72;;;;;;;;;;5052276;28;20029;-68
2022/06/04 07:22:56;;;;;;;29.95;8.23;;;;;;;;;;5052328;28;20191;-69
2022/06/04 07:25:21;;;;;;;32.53;8.20;;;;;;;;;;5052041;28;20033;-70
2022/06/04 07:27:47;;;;;;;31.00;7.90;;;;;;;;;;5052166;28;20484;-71
2022/06/04 07:30:13;;;;;;;27.20;8.93;;;;;;;;;;5051812;28;20519;-70
2022/06/04 07:32:40;;;;;;;29.20;7.50;;;;;;;;;;5050845;28;20317;-68
2022/06/04 07:35:05;;;;;;;26.90;7.30;;;;;;;;;;5051943;28;20071;-68
2022/06/04 07:37:31;;;;;;;21.48;6.88;;;;;;;;;;5051493;28;20516;-72
2022/06/04 07:39:56;;;;;;;21.95;6.53;;;;;;;;;;5051455;28;20108;-69
2022/06/04 07:42:22;;;;;;;20.08;6.40;;;;;;;;;;5051947;28;20025;-67
2022/06/04 07:44:47;;;;;;;16.85;6.35;;;;;;;;;;5051659;28;20017;-68
2022/06/04 07:47:13;;;;;;;24.10;6.88;;;;;;;;;;5051671;28;20094;-72
2022/06/04 07:49:38;;;;;;;21.60;6.47;;;;;;;;;;5051631;28;20028;-68
2022/06/04 07:52:04;;;;;;;23.92;6.57;;;;;;;;;;5051521;28;20028;-71
2022/06/04 07:54:31;;;;;;;21.83;6.07;;;;;;;;;;5051638;28;20025;-72
2022/06/04 07:56:57;;;;;;;18.25;5.82;;;;;;;;;;5051773;28;20043;-72
2022/06/04 07:59:23;;;;;;;24.38;6.15;;;;;;;;;;5051279;28;20484;-72
2022/06/04 08:01:49;;;;;;;21.13;6.10;;;;;;;;;;5051323;28;20037;-72
2022/06/04 08:04:14;;;;;;;19.67;6.00;;;;;;;;;;5051331;28;20036;-73
2022/06/04 08:06:40;;;;;;;18.65;6.22;;;;;;;;;;5051350;28;20032;-70
2022/06/04 08:09:06;;;;;;;19.33;5.50;;;;;;;;;;5051540;28;20389;-73
2022/06/04 08:11:31;;;;;;;20.13;5.93;;;;;;;;;;5051128;28;20043;-70
2022/06/04 08:14:03;;;;;;;22.20;5.88;;;;;;;;;;5051109;28;20031;-71
2022/06/04 08:16:29;;;;;;;20.60;5.90;;;;;;;;;;5051099;28;20495;-73
2022/06/04 08:18:54;;;;;;;21.45;5.97;;;;;;;;;;5050848;28;20025;-72
2022/06/04 08:21:20;;;;;;;18.80;5.93;;;;;;;;;;5050756;28;20064;-72
2022/06/04 08:23:46;;;;;;;16.83;5.82;;;;;;;;;;5051015;28;20099;-72
2022/06/04 08:26:12;;;;;;;21.75;6.05;;;;;;;;;;5050935;28;20028;-70
2022/06/04 08:28:37;;;;;;;20.63;6.50;;;;;;;;;;5050672;28;20495;-69
2022/06/04 08:31:07;;;;;;;21.27;6.07;;;;;;;;;;5049689;28;20051;-74
2022/06/04 08:33:33;;;;;;;16.45;5.70;;;;;;;;;;5050793;28;20025;-72
2022/06/04 08:35:59;;;;;;;23.05;6.07;;;;;;;;;;5050488;28;20405;-72
2022/06/04 08:38:24;;;;;;;16.73;6.00;;;;;;;;;;5050773;28;20021;-72
2022/06/04 08:41:00;;;;;;;23.77;6.40;;;;;;;;;;5050537;28;20052;-72
2022/06/04 08:44:22;;;;;;;19.70;5.88;;;;;;;;;;5050731;28;20506;-73
2022/06/04 08:46:56;;;;;;;18.98;5.80;;;;;;;;;;5008492;28;20528;-73
2022/06/04 08:49:30;;;;;;;24.85;6.25;;;;;;;;;;5007358;28;20029;-73
2022/06/04 08:51:57;;;;;;;16.88;6.05;;;;;;;;;;5031858;28;20048;-74
2022/06/04 09:00:01;;;;;;;24.42;6.65;;;;;;;;;;5050743;28;20071;-71
2022/06/04 09:02:44;;;;;;;26.20;6.90;;;;;;;;;;5050502;28;20025;-74
2022/06/04 09:05:36;;;;;;;19.90;6.38;;;;;;;;;;5050259;28;20036;-73
2022/06/04 09:08:17;;;;;;;21.27;5.95;;;;;;;;;;5049934;28;20063;-73
2022/06/04 09:10:50;;;;;;;21.05;6.20;;;;;;;;;;5049989;28;20108;-71
2022/06/04 09:13:31;;;;;;;19.08;6.25;;;;;;;;;;5050114;28;20123;-73
2022/06/04 09:16:03;;;;;;;23.88;6.60;;;;;;;;;;5050327;28;20198;-73
2022/06/04 09:18:34;;;;;;;23.80;6.32;;;;;;;;;;5050143;28;20117;-74
2022/06/04 09:21:02;;;;;;;21.83;6.30;;;;;;;;;;5050298;28;20025;-72
2022/06/04 09:23:37;;;;;;;29.25;6.70;;;;;;;;;;5050085;28;20036;-73
2022/06/04 09:26:15;;;;;;;20.88;5.97;;;;;;;;;;5050329;28;20297;-73
2022/06/04 09:28:59;;;;;;;25.85;6.15;;;;;;;;;;5049810;28;20031;-73
2022/06/04 09:31:31;;;;;;;23.10;6.30;;;;;;;;;;5049856;28;20543;-73
2022/06/04 09:34:01;;;;;;;22.05;6.50;;;;;;;;;;5050078;28;20052;-71
2022/06/04 09:36:36;;;;;;;17.95;5.53;;;;;;;;;;5050084;28;20025;-72
2022/06/04 09:39:05;;;;;;;20.80;5.57;;;;;;;;;;5049759;28;20029;-72
2022/06/04 09:41:33;;;;;;;25.00;6.07;;;;;;;;;;5050284;28;20052;-71
2022/06/04 09:44:15;;;;;;;21.73;6.05;;;;;;;;;;5049841;28;20475;-73
2022/06/04 09:46:45;;;;;;;19.60;6.50;;;;;;;;;;5050038;28;20048;-72
2022/06/04 09:49:31;;;;;;;13.15;5.65;;;;;;;;;;5049649;28;20028;-72
2022/06/04 09:51:57;;;;;;;17.52;5.90;;;;;;;;;;5049496;28;20036;-73
2022/06/04 09:54:27;;;;;;;26.88;6.55;;;;;;;;;;5049668;28;20025;-74
2022/06/04 09:56:57;;;;;;;;;;;;;;;;;;5050227;28;20032;-72
2022/06/04 09:59:28;;;;;;;27.35;6.72;;;;;;;;;;5051103;28;19913;-74
2022/06/04 10:01:59;;;;;;;22.73;6.15;;;;;;;;;;5054029;28;20033;-73
2022/06/04 10:04:35;;;;;;;18.05;6.07;;;;;;;;;;5052229;28;20044;-72
2022/06/04 10:07:07;;;;;;;21.92;6.18;;;;;;;;;;5053400;28;20025;-72
2022/06/04 10:15:49;;;;;;;21.45;6.03;;;;;;;;;;5053598;28;20056;-73
2022/06/04 10:18:25;;;;;;;23.27;6.53;;;;;;;;;;5053377;28;20029;-73
2022/06/04 10:20:59;;;;;;;21.75;6.35;;;;;;;;;;5053014;28;20025;-73
2022/06/04 10:23:26;;;;;;;18.92;6.35;;;;;;;;;;5053202;28;20231;-73
2022/06/04 10:26:41;;;;;;;20.92;6.38;;;;;;;;;;5053364;28;20025;-72
2022/06/04 10:29:13;;;;;;;21.02;6.10;;;;;;;;;;5044962;28;20036;-71
2022/06/04 10:32:12;;;;;;;24.65;6.60;;;;;;;;;;5053059;28;20491;-68
2022/06/04 10:35:01;;;;;;;19.95;6.30;;;;;;;;;;5053157;28;20485;-67
2022/06/04 10:38:01;;;;;;;22.33;6.28;;;;;;;;;;5052864;28;20032;-70
2022/06/04 10:40:45;;;;;;;;;;;;;;;;;;5053246;28;20029;-67
2022/06/04 10:43:22;;;;;;;19.67;6.00;;;;;;;;;;5053208;28;19912;-67
2022/06/04 10:46:07;;;;;;;22.33;6.38;;;;;;;;;;5053255;28;20123;-68
2022/06/04 10:49:04;;;;;;;18.52;5.97;;;;;;;;;;5052915;28;20498;-68
2022/06/04 10:52:05;;;;;;;26.92;6.43;;;;;;;;;;5034504;28;20041;-69
2022/06/04 10:54:43;;;;;;;19.77;6.00;;;;;;;;;;5052655;28;20082;-69
2022/06/04 10:57:14;;;;;;;19.10;6.03;;;;;;;;;;5052716;28;20051;-67
2022/06/04 10:59:59;;;;;;;18.40;6.13;;;;;;;;;;5052789;28;20084;-66
2022/06/04 11:02:36;;;;;;;20.70;6.68;;;;;;;;;;5052624;28;20025;-67
2022/06/04 11:05:08;;;;;;;18.58;6.35;;;;;;;;;;5052948;28;20263;-67
2022/06/04 11:07:42;;;;;;;19.73;6.68;;;;;;;;;;5052438;28;20052;-68
2022/06/04 11:10:17;;;;;;;22.90;7.10;;;;;;;;;;5052143;28;20619;-68
2022/06/04 11:12:48;;;;;;;21.88;6.68;;;;;;;;;;5051987;28;20024;-72
2022/06/04 11:15:34;;;;;;;22.67;6.45;;;;;;;;;;5052128;28;20029;-69
2022/06/04 11:18:14;;;;;;;23.10;6.80;;;;;;;;;;5052477;28;20048;-69
2022/06/04 11:20:47;;;;;;;20.55;6.80;;;;;;;;;;5052328;28;20451;-68
2022/06/04 11:23:18;;;;;;;21.88;7.35;;;;;;;;;;5052049;28;20135;-68
2022/06/04 11:25:48;;;;;;;18.40;6.72;;;;;;;;;;5052478;28;20033;-68
2022/06/04 11:28:26;;;;;;;25.43;7.40;;;;;;;;;;5052075;28;20079;-68
2022/06/04 11:30:57;;;;;;;22.15;6.80;;;;;;;;;;5051731;28;20319;-69
2022/06/04 11:33:55;;;;;;;20.63;6.55;;;;;;;;;;5052237;28;20289;-69
2022/06/04 11:36:44;;;;;;;20.08;6.55;;;;;;;;;;5051998;28;20052;-67
2022/06/04 11:39:43;;;;;;;20.50;6.22;;;;;;;;;;5052013;28;20044;-71
2022/06/04 11:42:22;;;;;;;16.10;6.05;;;;;;;;;;5051821;28;20033;-67
2022/06/04 11:44:53;;;;;;;21.75;6.30;;;;;;;;;;5051814;28;20082;-67
2022/06/04 11:47:38;;;;;;;18.25;6.88;;;;;;;;;;5051700;28;20439;-67
2022/06/04 11:50:24;;;;;;;19.13;6.68;;;;;;;;;;5051672;28;20083;-68
2022/06/04 11:53:32;;;;;;;25.63;6.65;;;;;;;;;;5050292;28;20029;-68
2022/06/04 11:56:05;;;;;;;23.48;7.00;;;;;;;;;;5050238;28;20051;-68
2022/06/04 11:59:04;;;;;;;24.92;6.65;;;;;;;;;;5051809;28;20029;-68
2022/06/04 12:01:40;;;;;;;17.92;6.50;;;;;;;;;;5033788;28;20029;-73
2022/06/04 12:04:30;;;;;;;18.90;6.40;;;;;;;;;;5051318;28;20512;-68
2022/06/04 12:07:07;;;;;;;25.75;6.47;;;;;;;;;;5044783;28;20037;-67
2022/06/04 12:09:40;;;;;;;20.75;6.65;;;;;;;;;;5051698;28;20047;-72
2022/06/04 12:12:17;;;;;;;22.98;7.05;;;;;;;;;;5049821;28;20041;-72
2022/06/04 12:14:43;;;;;;;20.77;6.43;;;;;;;;;;5051614;28;20384;-68
2022/06/04 12:17:08;;;;;;;22.83;6.35;;;;;;;;;;5051693;28;20020;-68
2022/06/04 12:25:41;;;;;;;17.08;6.00;;;;;;;;;;5051477;28;20048;-72
2022/06/04 12:28:40;;;;;;;20.65;6.15;;;;;;;;;;5051357;28;20496;-68
2022/06/04 12:31:05;;;;;;;18.70;6.78;;;;;;;;;;5050766;28;20039;-68
2022/06/04 12:33:49;;;;;;;22.13;6.70;;;;;;;;;;5050949;28;20021;-72
2022/06/04 12:36:34;;;;;;;17.55;6.20;;;;;;;;;;5050790;28;20021;-72
2022/06/04 12:39:19;;;;;;;19.80;6.25;;;;;;;;;;5050705;28;20071;-73
2022/06/04 12:41:51;;;;;;;20.85;6.60;;;;;;;;;;5050449;28;20025;-72
2022/06/04 12:44:35;;;;;;;19.10;6.25;;;;;;;;;;5049134;28;20035;-73
2022/06/04 12:47:24;;;;;;;20.80;6.18;;;;;;;;;;5050564;28;20029;-73
2022/06/04 12:50:13;;;;;;;15.45;6.25;;;;;;;;;;5050559;28;20032;-72
2022/06/04 12:52:57;;;;;;;17.98;6.47;;;;;;;;;;5051074;28;20060;-72
2022/06/04 12:55:28;;;;;;;19.10;6.38;;;;;;;;;;5050411;28;20061;-73
2022/06/04 12:58:06;;;;;;;18.10;6.47;;;;;;;;;;5050382;28;20029;-71
2022/06/04 13:00:42;;;;;;;21.63;6.47;;;;;;;;;;5048902;28;20033;-70
2022/06/04 13:03:07;;;;;;;20.85;6.15;;;;;;;;;;5050037;28;20389;-71
2022/06/04 13:05:54;;;;;;;22.25;6.32;;;;;;;;;;5050201;28;20477;-73
2022/06/04 13:08:19;;;;;;;23.60;6.50;;;;;;;;;;5050098;28;20028;-72
2022/06/04 13:11:21;;;;;;;19.73;6.53;;;;;;;;;;5049898;28;20029;-71
2022/06/04 13:14:12;;;;;;;19.75;6.20;;;;;;;;;;5043184;28;20275;-72
2022/06/04 13:16:54;;;;;;;16.05;6.30;;;;;;;;;;5049996;28;20526;-72
2022/06/04 13:19:49;;;;;;;17.15;6.00;;;;;;;;;;5050133;28;20025;-72
2022/06/04 13:22:26;;;;;;;18.42;6.20;;;;;;;;;;5048282;28;20052;-72
2022/06/04 13:24:52;;;;;;;22.10;6.57;;;;;;;;;;5050308;28;20029;-73
2022/06/04 13:27:34;;;;;;;23.05;6.47;;;;;;;;;;5050012;28;20029;-71
2022/06/04 13:29:59;;;;;;;17.42;6.22;;;;;;;;;;5049910;28;20104;-73
2022/06/04 13:32:25;;;;;;;25.85;6.38;;;;;;;;;;5049625;28;20111;-73
2022/06/04 13:34:50;;;;;;;18.90;6.78;;;;;;;;;;5049837;28;20377;-71
2022/06/04 13:37:24;;;;;;;19.13;6.18;;;;;;;;;;5049655;28;20055;-72
2022/06/04 13:39:53;;;;;;;17.70;6.00;;;;;;;;;;5049729;28;20551;-73
2022/06/04 13:42:45;;;;;;;19.55;6.40;;;;;;;;;;5049563;28;20027;-71
2022/06/04 13:45:10;;;;;;;16.92;6.00;;;;;;;;;;5049698;28;20389;-71
2022/06/04 13:47:39;;;;;;;21.55;6.50;;;;;;;;;;5049677;28;20040;-72
2022/06/04 13:50:07;;;;;;;20.45;6.00;;;;;;;;;;5049489;28;20059;-73
2022/06/04 13:52:52;;;;;;;24.27;6.43;;;;;;;;;;5049309;28;20037;-73
2022/06/04 13:55:17;;;;;;;21.13;5.97;;;;;;;;;;5050093;28;20035;-70
2022/06/04 13:57:45;;;;;;;18.90;6.07;;;;;;;;;;5049789;28;20096;-72
2022/06/04 14:00:23;;;;;;;17.30;5.90;;;;;;;;;;5049666;28;20630;-73
2022/06/04 14:02:52;;;;;;;21.80;5.60;;;;;;;;;;5049589;28;20397;-72
2022/06/04 14:05:44;;;;;;;17.15;5.60;;;;;;;;;;5049570;28;20389;-72
2022/06/04 14:08:27;;;;;;;20.48;5.78;;;;;;;;;;5049584;28;20028;-69
2022/06/04 14:11:16;;;;;;;18.17;6.35;;;;;;;;;;5047920;28;20067;-68
2022/06/04 14:14:00;;;;;;;19.33;6.47;;;;;;;;;;5049928;28;20021;-67
2022/06/04 14:16:46;;;;;;;19.63;6.25;;;;;;;;;;5049590;28;20267;-68
2022/06/04 14:19:39;;;;;;;16.23;6.03;;;;;;;;;;5049578;28;20108;-71
2022/06/04 14:22:21;;;;;;;19.08;6.18;;;;;;;;;;5048951;28;20053;-67
2022/06/04 14:25:14;;;;;;;20.00;6.57;;;;;;;;;;5048029;28;20508;-68
2022/06/04 14:27:55;;;;;;;14.57;5.82;;;;;;;;;;5049199;28;20029;-67
2022/06/04 14:30:32;;;;;;;17.83;5.57;;;;;;;;;;5049406;28;20021;-69
2022/06/04 14:32:59;;;;;;;19.95;6.07;;;;;;;;;;5049171;28;20025;-69
2022/06/04 14:35:36;;;;;;;15.30;5.38;;;;;;;;;;5049363;28;20222;-68
2022/06/04 14:38:16;;;;;;;14.65;5.90;;;;;;;;;;5049616;28;20095;-72
2022/06/04 14:41:20;;;;;;;20.70;6.25;;;;;;;;;;5049370;28;20495;-69
2022/06/04 14:44:01;;;;;;;15.00;5.72;;;;;;;;;;5027686;28;20107;-71
2022/06/04 14:46:44;;;;;;;15.40;5.70;;;;;;;;;;5050467;28;20032;-70
2022/06/04 14:49:16;;;;;;;22.73;6.25;;;;;;;;;;5052981;28;20025;-68
2022/06/04 14:52:15;;;;;;;13.90;6.10;;;;;;;;;;5052428;28;20047;-69
2022/06/04 14:54:42;;;;;;;16.48;6.10;;;;;;;;;;5052921;28;20060;-69
2022/06/04 14:57:24;;;;;;;22.45;6.30;;;;;;;;;;5052879;28;20553;-70
2022/06/04 15:00:19;;;;;;;17.00;5.82;;;;;;;;;;5052728;28;20029;-67
2022/06/04 15:03:23;;;;;;;17.23;6.07;;;;;;;;;;5052264;28;20040;-67
2022/06/04 15:05:52;;;;;;;19.15;5.63;;;;;;;;;;5052541;28;20060;-68
2022/06/04 15:08:49;;;;;;;14.75;5.85;;;;;;;;;;5052531;28;20029;-72
2022/06/04 15:11:49;;;;;;;14.88;5.90;;;;;;;;;;5051052;28;20025;-67
2022/06/04 15:14:35;;;;;;;15.10;5.70;;;;;;;;;;5052742;28;20191;-71
2022/06/04 15:17:18;;;;;;;15.15;5.60;;;;;;;;;;5052470;28;20021;-68
2022/06/04 15:19:50;;;;;;;13.70;5.60;;;;;;;;;;5052350;28;20029;-71
2022/06/04 15:22:21;;;;;;;13.50;5.50;;;;;;;;;;5051658;28;20049;-73
2022/06/04 15:24:55;;;;;;;17.92;5.25;;;;;;;;;;5052178;28;20457;-71
2022/06/04 15:27:43;;;;;;;12.70;5.40;;;;;;;;;;5052141;28;20476;-67
2022/06/04 15:36:13;;;;;;;18.10;5.55;;;;;;;;;;5052130;28;20538;-70
2022/06/04 15:38:46;;;;;;;17.80;5.60;;;;;;;;;;5051910;28;20036;-71
2022/06/04 15:41:19;;;;;;;11.43;5.28;;;;;;;;;;5052134;28;20029;-70